createdAt,value
2018-05-24T00:00:11.682Z,62.5
2018-05-24T00:01:10.885Z,62.4
2018-05-24T00:02:10.322Z,62.9
2018-05-24T00:03:09.742Z,63
2018-05-24T00:04:09.173Z,62.4
2018-05-24T00:05:08.484Z,61.6
2018-05-24T00:06:07.579Z,62.8
2018-05-24T00:07:06.899Z,62.2
2018-05-24T00:08:06.107Z,62.5
2018-05-24T00:09:05.809Z,62
2018-05-24T00:10:05.024Z,62.9
2018-05-24T00:11:04.242Z,62.8
2018-05-24T00:12:03.550Z,62
2018-05-24T00:13:02.860Z,62.2
2018-05-24T00:14:01.956Z,62.2
2018-05-24T00:15:01.669Z,62.2
2018-05-24T00:16:00.664Z,62.1
2018-05-24T00:16:59.899Z,61.2
2018-05-24T00:17:59.215Z,62
2018-05-24T00:18:58.929Z,61.5
2018-05-24T00:19:58.146Z,61.6
2018-05-24T00:20:57.242Z,62.2
2018-05-24T00:21:56.667Z,62.3
2018-05-24T00:22:56.275Z,61.9
2018-05-24T00:23:55.699Z,62.1
2018-05-24T00:24:55.027Z,60.4
2018-05-24T00:25:54.343Z,61.3
2018-05-24T00:26:53.266Z,60.9
2018-05-24T00:27:52.866Z,61.1
2018-05-24T00:28:52.150Z,60.6
2018-05-24T00:29:51.364Z,61.5
2018-05-24T00:30:50.787Z,61.1
2018-05-24T00:31:50.107Z,62.2
2018-05-24T00:32:49.210Z,60.9
2018-05-24T00:33:48.637Z,61.5
2018-05-24T00:34:47.850Z,61.5
2018-05-24T00:35:47.568Z,60.6
2018-05-24T00:36:46.780Z,60.9
2018-05-24T00:37:46.000Z,60.7
2018-05-24T00:38:45.293Z,61.5
2018-05-24T00:39:44.609Z,61
2018-05-24T00:40:44.217Z,61.3
2018-05-24T00:41:43.533Z,61.3
2018-05-24T00:42:42.742Z,61.3
2018-05-24T00:43:13.383Z,61.3
2018-05-24T00:43:43.905Z,61.4
2018-05-24T00:44:14.427Z,61.4
2018-05-24T00:45:40.821Z,61.7
2018-05-24T00:46:40.143Z,61.9
2018-05-24T00:49:37.845Z,62.4
2018-05-24T00:50:37.235Z,62.7
2018-05-24T00:51:36.648Z,63.1
2018-05-24T00:52:36.078Z,62.9
2018-05-24T00:53:06.494Z,62.9
2018-05-24T00:53:36.722Z,62.8
2018-05-24T00:54:07.232Z,62.8
2018-05-24T00:54:38.143Z,62.7
2018-05-24T00:55:08.405Z,62.7
2018-05-24T00:55:38.639Z,62.8
2018-05-24T00:56:09.281Z,62.8
2018-05-24T00:57:32.750Z,63
2018-05-24T00:58:32.168Z,63.4
2018-05-24T00:59:31.382Z,63.3
2018-05-24T01:00:30.589Z,63.1
2018-05-24T01:01:29.704Z,63.7
2018-05-24T01:02:29.817Z,63.3
2018-05-24T01:20:17.236Z,64.7
2018-05-24T19:41:56.762Z,62.5
